Time;durP1;ratioP1;P1;durP2;ratioP2;P2;SDS_P1;SDS_P2;PMS_P1;PMS_P2;Temp;Humidity;BMP_temperature;BMP_pressure;BME280_temperature;BME280_humidity;BME280_pressure;Samples;Min_cycle;Max_cycle;Signal;HPM_P1;HPM_P2
2020/12/01 00:01:56;;;;;;;117.43;53.53;;;;;;;0.34;79.89;101292.81;5112933;28;20157;-70
2020/12/01 00:04:22;;;;;;;118.50;53.53;;;;;;;0.32;80.06;101289.53;5117741;28;20026;-70
2020/12/01 00:06:47;;;;;;;115.20;53.42;;;;;;;0.28;80.08;101294.06;5113715;28;20023;-71
2020/12/01 00:09:13;;;;;;;125.95;54.35;;;;;;;0.21;79.86;101288.94;5117276;28;20039;-71
2020/12/01 00:11:39;;;;;;;115.68;54.30;;;;;;;0.15;79.76;101284.66;5117190;28;20423;-71
2020/12/01 00:14:05;;;;;;;114.43;56.08;;;;;;;0.08;80.01;101289.81;5117010;28;20026;-71
2020/12/01 00:16:30;;;;;;;112.40;52.92;;;;;;;0.07;80.28;101288.16;5116255;28;20019;-70
2020/12/01 00:18:56;;;;;;;108.72;52.20;;;;;;;0.01;80.05;101283.88;5117336;28;20019;-71
2020/12/01 00:21:22;;;;;;;117.70;54.67;;;;;;;-0.08;79.76;101280.19;5116992;28;20016;-71
2020/12/01 00:23:47;;;;;;;118.47;55.78;;;;;;;-0.13;79.97;101277.53;5113383;28;20073;-71
2020/12/01 00:26:18;;;;;;;109.38;52.97;;;;;;;-0.20;80.18;101272.44;5116725;28;20108;-71
2020/12/01 00:28:44;;;;;;;117.28;54.83;;;;;;;-0.15;80.47;101274.28;5114280;28;20027;-71
2020/12/01 00:31:10;;;;;;;105.53;52.65;;;;;;;-0.09;80.48;101273.03;5112897;28;20023;-71
2020/12/01 00:33:35;;;;;;;111.15;53.33;;;;;;;-0.02;80.39;101267.88;5117222;28;20024;-71
2020/12/01 00:36:01;;;;;;;112.22;52.88;;;;;;;-0.04;80.29;101272.91;5116781;28;20046;-71
2020/12/01 00:38:26;;;;;;;126.65;56.75;;;;;;;-0.03;80.35;101271.78;5116754;28;20023;-71
2020/12/01 00:40:52;;;;;;;116.18;54.42;;;;;;;-0.04;79.78;101275.69;5116567;28;20034;-72
2020/12/01 00:43:17;;;;;;;110.15;51.92;;;;;;;-0.12;79.99;101268.13;5116675;28;21216;-71
2020/12/01 00:45:44;;;;;;;112.90;53.72;;;;;;;-0.27;79.35;101266.53;5113829;28;20135;-71
2020/12/01 00:48:10;;;;;;;110.03;52.33;;;;;;;-0.36;79.38;101282.97;5116561;28;20028;-70
2020/12/01 00:50:36;;;;;;;116.65;53.03;;;;;;;-0.47;79.79;101275.22;5116925;28;20084;-70
2020/12/01 00:53:01;;;;;;;121.07;53.70;;;;;;;-0.55;79.50;101271.22;5116272;28;20407;-70
2020/12/01 00:55:27;;;;;;;119.18;54.83;;;;;;;-0.58;79.79;101276.53;5116599;28;20022;-70
2020/12/01 00:57:52;;;;;;;109.82;53.35;;;;;;;-0.60;80.47;101273.25;5116417;28;20311;-70
2020/12/01 01:00:23;;;;;;;111.82;53.65;;;;;;;-0.65;80.69;101271.44;5116329;28;20077;-70
2020/12/01 01:02:48;;;;;;;91.03;39.60;;;;;;;-0.70;80.52;101274.28;5114487;28;20023;-70
2020/12/01 01:05:14;;;;;;;114.80;53.38;;;;;;;-0.77;80.40;101274.69;5116198;28;20040;-70
2020/12/01 01:07:39;;;;;;;119.22;52.83;;;;;;;-0.84;80.17;101279.78;5115989;28;20050;-70
2020/12/01 01:10:05;;;;;;;115.85;53.60;;;;;;;-0.90;80.26;101281.00;5115922;28;20143;-71
2020/12/01 01:12:31;;;;;;;111.78;51.42;;;;;;;-0.90;80.78;101275.47;5108740;28;20020;-70
2020/12/01 01:14:56;;;;;;;105.45;50.58;;;;;;;-0.90;80.26;101274.66;5115865;28;20031;-70
2020/12/01 01:17:21;;;;;;;103.88;48.67;;;;;;;-0.89;80.47;101268.03;5115980;28;20027;-71
2020/12/01 01:19:47;;;;;;;102.75;47.80;;;;;;;-0.91;80.68;101264.75;5116158;28;20019;-70
2020/12/01 01:22:12;;;;;;;99.18;46.30;;;;;;;-0.89;80.77;101268.03;5115957;28;20023;-71
2020/12/01 01:24:38;;;;;;;103.15;48.88;;;;;;;-0.87;81.04;101263.00;5115932;28;20302;-71
2020/12/01 01:27:03;;;;;;;107.50;49.20;;;;;;;-0.85;80.92;101250.53;5115635;28;20022;-71
2020/12/01 01:29:28;;;;;;;101.85;47.35;;;;;;;-0.79;80.87;101254.06;5115839;28;20381;-71
2020/12/01 01:31:54;;;;;;;96.53;46.00;;;;;;;-0.78;80.55;101247.41;5115742;28;20023;-71
2020/12/01 01:34:21;;;;;;;100.63;46.55;;;;;;;-0.84;79.76;101256.88;5114767;28;20664;-71
2020/12/01 01:36:46;;;;;;;105.28;48.05;;;;;;;-0.98;79.24;101251.34;5115759;28;20407;-71
2020/12/01 01:39:11;;;;;;;96.00;45.35;;;;;;;-1.08;79.63;101240.53;5115592;28;20035;-71
2020/12/01 01:41:38;;;;;;;93.30;45.42;;;;;;;-1.12;80.35;101233.94;5115347;28;20024;-71
2020/12/01 01:44:19;;;;;;;105.32;47.80;;;;;;;-1.07;80.36;101242.16;5115686;28;20357;-72
2020/12/01 01:46:48;;;;;;;109.70;50.85;;;;;;;-1.10;80.22;101232.53;5115264;28;20096;-71
2020/12/01 01:49:16;;;;;;;115.70;49.45;;;;;;;-1.15;80.00;101240.06;5115584;28;20490;-71
2020/12/01 01:51:56;;;;;;;120.35;52.05;;;;;;;-1.10;80.52;101226.19;5115501;28;20027;-71
2020/12/01 01:54:25;;;;;;;106.53;46.70;;;;;;;-1.09;79.82;101234.19;5115364;28;20302;-72
2020/12/01 01:56:55;;;;;;;107.93;48.30;;;;;;;-1.17;79.53;101232.09;5115311;28;20088;-71
2020/12/01 01:59:22;;;;;;;107.13;47.80;;;;;;;-1.26;80.16;101228.41;5115426;28;20028;-72
2020/12/01 02:01:49;;;;;;;99.97;45.97;;;;;;;-1.28;80.17;101225.97;5113850;28;20030;-71
2020/12/01 02:04:15;;;;;;;96.43;45.83;;;;;;;-1.33;80.38;101228.81;5115520;28;20345;-71
2020/12/01 02:06:55;;;;;;;135.85;59.08;;;;;;;-1.43;79.64;101236.44;5115382;28;20020;-71
2020/12/01 02:09:26;;;;;;;124.10;57.05;;;;;;;-1.53;80.19;101228.34;5113568;28;20044;-71
2020/12/01 02:11:51;;;;;;;131.85;57.67;;;;;;;-1.60;80.23;101229.53;5115380;28;20047;-70
2020/12/01 02:14:26;;;;;;;129.43;57.58;;;;;;;-1.64;80.70;101233.22;5114898;28;20024;-71
2020/12/01 02:16:55;;;;;;;112.30;51.63;;;;;;;-1.69;80.48;101220.31;5115444;28;20026;-71
2020/12/01 02:19:24;;;;;;;115.20;50.95;;;;;;;-1.66;80.73;101218.88;5115030;28;20077;-71
2020/12/01 02:21:50;;;;;;;115.75;53.95;;;;;;;-1.70;80.97;101226.94;5115073;28;20019;-70
2020/12/01 02:24:19;;;;;;;115.32;50.15;;;;;;;-1.73;80.75;101211.00;5112145;28;20028;-70
2020/12/01 02:26:50;;;;;;;117.25;51.78;;;;;;;-1.67;80.82;101211.72;5119263;28;20076;-71
2020/12/01 02:29:19;;;;;;;110.38;52.55;;;;;;;-1.67;81.32;101207.03;5119345;28;20030;-71
2020/12/01 02:31:45;;;;;;;106.90;51.50;;;;;;;-1.67;80.73;101203.47;5119391;28;20098;-70
2020/12/01 02:34:14;;;;;;;109.50;51.70;;;;;;;-1.67;81.06;101207.03;5119080;28;20068;-70
2020/12/01 02:36:40;;;;;;;105.47;49.72;;;;;;;-1.63;81.67;101215.56;5119102;28;20066;-71
2020/12/01 02:39:07;;;;;;;123.50;50.35;;;;;;;-1.55;81.68;101214.84;5119529;28;20382;-71
2020/12/01 02:41:33;;;;;;;117.93;49.88;;;;;;;-1.46;81.34;101206.69;5118851;28;20027;-71
2020/12/01 02:43:59;;;;;;;118.38;49.33;;;;;;;-1.38;82.06;101204.06;5115269;28;20024;-71
2020/12/01 02:46:26;;;;;;;118.45;47.45;;;;;;;-1.31;82.21;101209.19;5115065;28;20016;-70
2020/12/01 02:48:51;;;;;;;132.88;49.85;;;;;;;-1.23;82.27;101207.69;5118780;28;20026;-69
2020/12/01 02:51:16;;;;;;;136.45;52.10;;;;;;;-1.17;81.41;101210.03;5118841;28;20334;-69
2020/12/01 02:53:42;;;;;;;122.45;52.42;;;;;;;-1.15;82.54;101207.78;5118891;28;20092;-70
2020/12/01 02:56:07;;;;;;;128.45;50.63;;;;;;;-1.16;81.94;101200.63;5118898;28;20031;-71
2020/12/01 02:58:32;;;;;;;127.68;51.95;;;;;;;-1.16;81.98;101194.28;5115883;28;20020;-70
2020/12/01 03:00:58;;;;;;;119.38;49.45;;;;;;;-1.16;82.28;101195.13;5118748;28;20414;-70
2020/12/01 03:03:23;;;;;;;105.88;46.40;;;;;;;-1.17;81.96;101199.00;5118840;28;20019;-71
2020/12/01 03:05:48;;;;;;;134.80;55.10;;;;;;;-1.20;82.36;101191.34;5117826;28;20019;-71
2020/12/01 03:08:14;;;;;;;131.90;53.85;;;;;;;-1.20;82.73;101196.84;5114425;28;20071;-70
2020/12/01 03:10:39;;;;;;;170.85;69.80;;;;;;;-1.25;82.14;101191.44;5118691;28;20069;-70
2020/12/01 03:13:05;;;;;;;132.57;56.55;;;;;;;-1.36;81.84;101182.53;5118453;28;20046;-71
2020/12/01 03:15:30;;;;;;;141.88;54.97;;;;;;;-1.53;82.69;101184.22;5118394;28;20418;-70
2020/12/01 03:17:55;;;;;;;154.52;61.47;;;;;;;-1.59;83.06;101189.00;5118517;28;20050;-71
2020/12/01 03:20:21;;;;;;;138.25;54.35;;;;;;;-1.56;83.42;101191.16;5118125;28;20403;-70
2020/12/01 03:22:46;;;;;;;129.30;54.13;;;;;;;-1.52;83.22;101185.84;5118524;28;20076;-71
2020/12/01 03:25:12;;;;;;;140.32;56.70;;;;;;;-1.50;83.28;101178.09;5118215;28;20406;-71
2020/12/01 03:27:37;;;;;;;134.60;52.45;;;;;;;-1.53;82.91;101186.97;5118266;28;20036;-71
2020/12/01 03:30:05;;;;;;;125.43;52.00;;;;;;;-1.66;82.84;101188.56;5118044;28;19943;-71
2020/12/01 03:32:31;;;;;;;130.60;54.50;;;;;;;-1.75;82.75;101188.44;5118244;28;20095;-71
2020/12/01 03:34:57;;;;;;;125.20;54.63;;;;;;;-1.87;82.62;101183.41;5117858;28;20098;-72
2020/12/01 03:37:22;;;;;;;121.22;50.78;;;;;;;-1.94;82.96;101174.69;5117187;28;20051;-71
2020/12/01 03:39:47;;;;;;;148.63;58.85;;;;;;;-1.99;83.17;101184.97;5117899;28;20039;-72
2020/12/01 03:42:13;;;;;;;167.25;60.97;;;;;;;-2.04;82.94;101182.28;5117746;28;20020;-72
2020/12/01 03:44:38;;;;;;;165.85;61.65;;;;;;;-2.11;83.37;101173.59;5117915;28;20309;-72
2020/12/01 03:47:04;;;;;;;192.60;74.20;;;;;;;-2.24;82.97;101186.97;5117756;28;20015;-72
2020/12/01 03:49:29;;;;;;;145.18;59.10;;;;;;;-2.39;82.90;101178.94;5117691;28;20540;-70
2020/12/01 03:51:55;;;;;;;152.27;60.00;;;;;;;-2.44;83.35;101183.72;5115185;28;20019;-71
2020/12/01 03:54:20;;;;;;;135.30;60.03;;;;;;;-2.50;83.18;101183.75;5116157;28;20322;-70
2020/12/01 03:56:46;;;;;;;148.50;59.55;;;;;;;-2.51;83.15;101181.31;5113615;28;20023;-70
2020/12/01 03:59:11;;;;;;;126.35;54.58;;;;;;;-2.52;83.17;101185.19;5117474;28;20051;-71
2020/12/01 04:01:36;;;;;;;125.45;55.25;;;;;;;-2.52;83.63;101179.66;5117654;28;20015;-71
2020/12/01 04:04:02;;;;;;;113.15;50.78;;;;;;;-2.50;83.29;101182.94;5117186;28;20031;-71
2020/12/01 04:06:27;;;;;;;130.75;52.20;;;;;;;-2.49;83.89;101179.06;5113822;28;20295;-71
2020/12/01 04:08:52;;;;;;;133.52;54.03;;;;;;;-2.53;84.11;101178.03;5117057;28;20079;-70
2020/12/01 04:11:18;;;;;;;149.20;60.03;;;;;;;-2.54;84.70;101176.41;5117372;28;20025;-71
2020/12/01 04:13:43;;;;;;;175.43;69.50;;;;;;;-2.55;84.12;101174.75;5117194;28;20351;-70
2020/12/01 04:16:09;;;;;;;136.60;56.70;;;;;;;-2.56;84.85;101179.44;5117282;28;20019;-71
2020/12/01 04:18:34;;;;;;;144.13;58.40;;;;;;;-2.53;85.59;101178.84;5111587;28;20414;-70
2020/12/01 04:20:59;;;;;;;134.75;57.30;;;;;;;-2.49;85.33;101179.06;5110653;28;20335;-71
2020/12/01 04:23:25;;;;;;;142.40;58.63;;;;;;;-2.48;84.98;101169.69;5117263;28;20051;-71
2020/12/01 04:25:50;;;;;;;150.38;58.60;;;;;;;-2.42;85.24;101167.72;5116915;28;20111;-70
2020/12/01 04:28:16;;;;;;;127.00;54.92;;;;;;;-2.43;84.78;101185.34;5117106;28;20341;-71
2020/12/01 04:30:41;;;;;;;126.60;55.08;;;;;;;-2.49;84.09;101181.81;5116866;28;20487;-72
2020/12/01 04:33:06;;;;;;;131.43;59.00;;;;;;;-2.52;84.02;101171.41;5116637;28;20069;-71
2020/12/01 04:35:32;;;;;;;170.57;70.78;;;;;;;-2.55;82.97;101170.06;5117027;28;20458;-72
2020/12/01 04:38:01;;;;;;;175.68;67.90;;;;;;;-2.59;83.00;101180.03;5116862;28;20016;-71
2020/12/01 04:40:31;;;;;;;189.50;69.95;;;;;;;-2.64;82.87;101182.06;5115892;28;20019;-72
2020/12/01 04:43:05;;;;;;;176.25;65.88;;;;;;;-2.69;82.53;101176.63;5116208;28;20031;-71
2020/12/01 04:45:31;;;;;;;132.88;52.28;;;;;;;-2.73;82.88;101178.31;5115991;28;20042;-71
2020/12/01 04:47:58;;;;;;;118.00;47.30;;;;;;;-2.80;82.49;101175.91;5113753;28;20050;-71
2020/12/01 04:50:40;;;;;;;115.53;48.40;;;;;;;-2.83;82.50;101176.50;5116836;28;20026;-71
2020/12/01 04:53:43;;;;;;;125.40;50.97;;;;;;;-2.93;83.02;101174.69;5116246;28;20023;-65
2020/12/01 04:56:24;;;;;;;110.03;44.20;;;;;;;-2.96;82.73;101174.47;5109949;28;20024;-75
2020/12/01 04:59:27;;;;;;;95.20;40.40;;;;;;;-2.99;82.93;101170.38;5114601;28;20099;-70
2020/12/01 05:02:01;;;;;;;99.90;39.90;;;;;;;-3.01;83.32;101175.34;5115569;28;20035;-68
2020/12/01 05:04:35;;;;;;;101.30;40.20;;;;;;;-3.09;82.89;101177.91;5114928;28;20071;-70
2020/12/01 05:07:27;;;;;;;101.60;40.72;;;;;;;-3.12;83.85;101173.81;5116630;28;20340;-70
2020/12/01 05:09:54;;;;;;;;;;;;;;;-3.09;84.10;101167.72;5116487;28;20040;-71
2020/12/01 05:12:34;;;;;;;97.03;38.75;;;;;;;-3.11;84.40;101176.28;5113919;28;19908;-71
2020/12/01 05:15:13;;;;;;;95.63;40.60;;;;;;;-3.17;84.21;101171.13;5112159;28;20025;-70
2020/12/01 05:17:55;;;;;;;91.13;37.17;;;;;;;-3.23;84.33;101169.53;5115971;28;20034;-70
2020/12/01 05:20:20;;;;;;;83.60;36.05;;;;;;;-3.20;84.98;101168.97;5115845;28;20310;-70
2020/12/01 05:22:52;;;;;;;85.05;36.10;;;;;;;-3.14;85.21;101167.78;5115557;28;20026;-64
2020/12/01 05:25:21;;;;;;;84.72;36.88;;;;;;;-3.10;85.38;101168.84;5114897;28;20038;-64
2020/12/01 05:27:47;;;;;;;77.82;36.05;;;;;;;-3.07;84.92;101167.44;5115165;28;20019;-65
2020/12/01 05:30:22;;;;;;;98.07;38.53;;;;;;;-3.05;85.38;101166.03;5115714;28;20407;-64
2020/12/01 05:32:58;;;;;;;111.28;46.83;;;;;;;-3.07;85.08;101162.75;5114485;28;20019;-65
2020/12/01 05:35:29;;;;;;;103.90;47.05;;;;;;;-3.08;85.13;101161.09;5115839;28;20099;-65
2020/12/01 05:38:02;;;;;;;100.82;42.85;;;;;;;-3.03;85.39;101154.72;5115085;28;20039;-63
2020/12/01 05:40:31;;;;;;;89.53;35.63;;;;;;;-3.01;85.63;101153.34;5114639;28;20319;-63
2020/12/01 05:42:57;;;;;;;164.48;41.55;;;;;;;-3.01;85.86;101152.50;5111881;28;20038;-64
2020/12/01 05:45:29;;;;;;;78.88;33.42;;;;;;;-3.03;86.45;101149.22;5115289;28;20406;-64
2020/12/01 05:48:25;;;;;;;91.78;33.90;;;;;;;-3.07;87.19;101150.94;5115578;28;20027;-63
2020/12/01 05:51:02;;;;;;;94.28;39.58;;;;;;;-3.12;87.02;101149.88;5113393;28;20054;-65
2020/12/01 05:53:28;;;;;;;85.35;34.65;;;;;;;-3.12;87.44;101149.88;5115624;28;20031;-64
2020/12/01 05:56:26;;;;;;;62.80;29.48;;;;;;;-3.10;87.68;101152.34;5115418;28;20314;-70
2020/12/01 05:58:56;;;;;;;122.03;43.28;;;;;;;-3.16;87.40;101151.59;5092105;28;20032;-65
2020/12/01 06:01:21;;;;;;;85.03;31.65;;;;;;;-3.20;87.37;101145.03;5113938;28;20042;-63
2020/12/01 06:04:04;;;;;;;60.38;29.58;;;;;;;-3.20;87.48;101146.97;5115511;28;20024;-66
2020/12/01 06:07:20;;;;;;;81.20;34.38;;;;;;;-3.18;87.35;101150.25;5115398;28;20019;-64
2020/12/01 06:10:17;;;;;;;111.13;47.45;;;;;;;-3.23;86.87;101164.88;5089720;28;20044;-64
2020/12/01 06:12:49;;;;;;;89.97;40.28;;;;;;;-3.27;86.81;101154.75;5113350;28;20040;-66
2020/12/01 06:15:18;;;;;;;64.80;32.70;;;;;;;-3.25;87.09;101155.28;5114824;28;20054;-66
2020/12/01 06:17:51;;;;;;;78.82;36.92;;;;;;;-3.24;87.44;101156.91;5115423;28;20047;-65
2020/12/01 06:20:38;;;;;;;82.78;40.75;;;;;;;-3.22;87.00;101157.44;5114902;28;20020;-66
2020/12/01 06:23:09;;;;;;;73.80;34.47;;;;;;;-3.21;87.57;101159.06;5115341;28;20027;-65
2020/12/01 06:25:47;;;;;;;64.07;32.58;;;;;;;-3.21;87.57;101164.56;5114259;28;20315;-66
2020/12/01 06:28:31;;;;;;;72.22;37.75;;;;;;;-3.24;87.46;101162.41;5114986;28;20165;-66
2020/12/01 06:31:23;;;;;;;74.03;35.53;;;;;;;-3.22;87.15;101161.00;5114417;28;20058;-65
2020/12/01 06:34:13;;;;;;;74.28;34.85;;;;;;;-3.19;87.14;101170.59;5115128;28;20030;-65
2020/12/01 06:37:16;;;;;;;82.60;40.95;;;;;;;-3.20;87.11;101163.47;5114826;28;20024;-64
2020/12/01 06:39:41;;;;;;;71.20;34.75;;;;;;;-3.17;87.13;101162.88;5115258;28;20027;-66
2020/12/01 06:42:19;;;;;;;60.30;30.75;;;;;;;-3.14;87.55;101163.09;5115031;28;20015;-68
2020/12/01 06:44:55;;;;;;;58.55;28.75;;;;;;;-3.15;87.31;101166.16;5114883;28;20016;-67
2020/12/01 06:47:27;;;;;;;60.35;30.30;;;;;;;-3.19;87.13;101167.84;5114627;28;20027;-65
2020/12/01 06:49:58;;;;;;;52.42;28.30;;;;;;;-3.17;87.47;101158.19;5110920;28;20413;-67
2020/12/01 06:52:23;;;;;;;64.95;30.60;;;;;;;-3.15;88.15;101166.16;5114822;28;20023;-66
2020/12/01 06:54:52;;;;;;;60.95;28.67;;;;;;;-3.12;88.09;101162.81;5115088;28;20081;-65
2020/12/01 06:57:27;;;;;;;55.53;27.98;;;;;;;-3.11;88.29;101173.53;5114372;28;20096;-64
2020/12/01 06:59:53;;;;;;;67.90;33.50;;;;;;;-3.11;88.47;101157.03;5114942;28;20093;-63
2020/12/01 07:02:24;;;;;;;56.50;28.02;;;;;;;-3.09;87.96;101153.97;5114702;28;20054;-63
2020/12/01 07:05:06;;;;;;;60.38;28.83;;;;;;;-3.08;88.91;101155.63;5114849;28;20023;-63
2020/12/01 07:07:35;;;;;;;53.30;28.30;;;;;;;-3.04;88.66;101150.34;5114788;28;20040;-63
2020/12/01 07:10:01;;;;;;;68.55;32.92;;;;;;;-2.98;89.05;101152.75;5114104;28;20040;-63
2020/12/01 07:12:46;;;;;;;83.95;41.28;;;;;;;-2.91;89.32;101157.91;5117454;28;20445;-63
2020/12/01 07:15:27;;;;;;;56.08;29.45;;;;;;;-2.85;89.45;101160.28;5116774;28;20023;-63
2020/12/01 07:17:59;;;;;;;65.30;29.45;;;;;;;-2.77;89.37;101157.97;5118583;28;20080;-64
2020/12/01 07:20:36;;;;;;;70.60;30.00;;;;;;;-2.80;89.45;101151.97;5118251;28;20080;-63
2020/12/01 07:23:11;;;;;;;63.50;28.92;;;;;;;-2.81;89.60;101158.56;5118285;28;20031;-63
2020/12/01 07:25:48;;;;;;;56.33;30.33;;;;;;;-2.73;89.81;101156.31;5118059;28;20292;-65
2020/12/01 07:28:35;;;;;;;66.85;31.30;;;;;;;-2.72;90.23;101155.19;5118141;28;20019;-63
2020/12/01 07:31:23;;;;;;;66.20;31.30;;;;;;;-2.67;90.57;101155.94;5117458;28;20531;-63
2020/12/01 07:33:56;;;;;;;65.97;33.38;;;;;;;-2.62;90.01;101150.34;5118061;28;20110;-63
2020/12/01 07:36:30;;;;;;;70.07;34.22;;;;;;;-2.55;89.94;101150.81;5117438;28;20089;-63
2020/12/01 07:39:28;;;;;;;70.25;35.70;;;;;;;-2.38;90.73;101152.25;5118125;28;20430;-63
2020/12/01 07:42:03;;;;;;;69.97;32.15;;;;;;;-2.34;90.99;101147.78;5108742;28;20425;-63
2020/12/01 07:44:38;;;;;;;82.38;34.30;;;;;;;-2.26;91.08;101155.34;5115940;28;20019;-63
2020/12/01 07:47:05;;;;;;;67.22;35.13;;;;;;;-2.26;91.07;101150.66;5115032;28;20102;-63
2020/12/01 07:49:31;;;;;;;107.43;39.75;;;;;;;-2.23;91.26;101155.56;5117909;28;20019;-63
2020/12/01 07:52:19;;;;;;;81.05;38.30;;;;;;;-2.21;91.10;101147.81;5117884;28;20019;-63
2020/12/01 07:54:49;;;;;;;85.47;41.85;;;;;;;-2.13;91.40;101153.78;5115110;28;20153;-63
2020/12/01 07:57:20;;;;;;;86.15;41.60;;;;;;;-2.07;91.53;101147.09;5117303;28;20097;-63
2020/12/01 07:59:48;;;;;;;95.35;43.10;;;;;;;-2.04;91.84;101152.00;5114434;28;20019;-63
2020/12/01 08:02:16;;;;;;;82.68;36.80;;;;;;;-1.97;91.78;101146.91;5117672;28;20365;-63
2020/12/01 08:04:41;;;;;;;87.55;40.22;;;;;;;-1.85;92.13;101144.53;5117097;28;20024;-63
2020/12/01 08:07:13;;;;;;;73.88;35.42;;;;;;;-1.80;92.31;101147.19;5117632;28;20049;-63
2020/12/01 08:09:38;;;;;;;;;;;;;;;-1.78;92.19;101144.94;5117684;28;20039;-63
2020/12/01 08:12:10;;;;;;;82.50;34.47;;;;;;;-1.76;91.70;101137.19;5117106;28;20291;-64
2020/12/01 08:14:35;;;;;;;;;;;;;;;-1.72;91.53;101149.25;5118016;28;20024;-64
2020/12/01 08:17:07;;;;;;;97.85;42.53;;;;;;;-1.70;91.76;101149.75;5117237;28;20350;-64
2020/12/01 08:19:33;;;;;;;90.53;41.10;;;;;;;-1.69;91.54;101145.88;5117405;28;20027;-64
2020/12/01 08:22:00;;;;;;;97.13;45.40;;;;;;;-1.65;91.72;101146.91;5113051;28;20107;-63
2020/12/01 08:24:29;;;;;;;88.57;42.80;;;;;;;-1.58;92.39;101144.59;5116893;28;20321;-64
2020/12/01 08:27:12;;;;;;;92.32;42.15;;;;;;;-1.53;91.81;101148.38;5117172;28;20015;-63
2020/12/01 08:29:40;;;;;;;94.80;42.08;;;;;;;-1.52;91.63;101144.50;5117265;28;20015;-64
2020/12/01 08:32:32;;;;;;;104.90;41.38;;;;;;;-1.48;92.22;101151.84;5116757;28;20357;-63
2020/12/01 08:35:19;;;;;;;79.47;37.97;;;;;;;-1.42;91.69;101147.88;5117142;28;20054;-64
2020/12/01 08:37:59;;;;;;;87.03;39.70;;;;;;;-1.36;91.91;101148.63;5116787;28;20087;-63
2020/12/01 08:40:37;;;;;;;82.18;35.92;;;;;;;-1.27;91.99;101138.50;5116128;28;20023;-65
2020/12/01 08:43:32;;;;;;;81.63;36.42;;;;;;;-1.16;92.51;101144.63;5116795;28;20019;-63
2020/12/01 08:46:22;;;;;;;90.60;38.83;;;;;;;-1.07;92.51;101138.13;5116118;28;20080;-70
2020/12/01 08:48:51;;;;;;;83.75;35.75;;;;;;;-1.05;92.37;101140.56;5115965;28;20064;-70
2020/12/01 08:51:51;;;;;;;94.82;42.80;;;;;;;-1.04;92.41;101145.78;5114246;28;20027;-70
2020/12/01 08:54:37;;;;;;;82.70;36.70;;;;;;;-1.01;92.21;101142.41;5115288;28;20075;-66
2020/12/01 08:57:08;;;;;;;86.93;37.60;;;;;;;-1.00;91.96;101135.75;5115568;28;20069;-72
2020/12/01 08:59:53;;;;;;;96.22;37.88;;;;;;;-0.98;91.96;101135.44;5116278;28;20036;-71
2020/12/01 09:02:20;;;;;;;84.55;38.63;;;;;;;-0.88;92.59;101139.94;5116210;28;20062;-65
2020/12/01 09:04:45;;;;;;;93.78;39.78;;;;;;;-0.87;92.51;101136.88;5115934;28;20073;-65
2020/12/01 09:07:17;;;;;;;90.00;39.85;;;;;;;-0.81;92.19;101137.59;5116445;28;20027;-64
2020/12/01 09:09:43;;;;;;;90.80;38.92;;;;;;;-0.84;92.24;101135.44;5115330;28;20035;-70
2020/12/01 09:12:24;;;;;;;92.20;38.80;;;;;;;-0.83;91.81;101137.06;5116464;28;20308;-71
2020/12/01 09:17:51;;;;;;;99.18;44.38;;;;;;;-0.80;91.75;101131.78;5116113;28;20027;-70
2020/12/01 09:23:18;;;;;;;93.20;37.50;;;;;;;-0.77;91.86;101124.81;5116198;28;20027;-69
2020/12/01 09:25:46;;;;;;;95.00;40.65;;;;;;;-0.79;91.58;101122.38;5115319;28;20415;-72
2020/12/01 09:28:18;;;;;;;98.95;43.78;;;;;;;-0.74;91.07;101126.94;5115984;28;20084;-71
2020/12/01 09:30:44;;;;;;;104.65;45.15;;;;;;;-0.72;90.90;101119.19;5115868;28;20033;-71
2020/12/01 09:33:13;;;;;;;123.07;56.17;;;;;;;-0.71;91.57;101112.53;5115110;28;20076;-70
2020/12/01 09:35:39;;;;;;;80.82;35.97;;;;;;;-0.66;91.51;101104.13;5113476;28;20024;-69
2020/12/01 09:38:06;;;;;;;115.05;52.63;;;;;;;-0.61;91.75;101104.00;5115154;28;20102;-64
2020/12/01 09:40:33;;;;;;;146.70;71.88;;;;;;;-0.55;91.73;101105.53;5115444;28;20019;-69
2020/12/01 09:43:08;;;;;;;127.80;62.22;;;;;;;-0.52;91.88;101102.16;5115335;28;20418;-72
2020/12/01 09:45:36;;;;;;;106.40;51.92;;;;;;;-0.48;91.71;101094.88;5115001;28;20024;-64
2020/12/01 09:50:40;;;;;;;92.82;43.88;;;;;;;-0.46;91.10;101089.03;5114711;28;20020;-71
2020/12/01 09:55:57;;;;;;;85.18;40.80;;;;;;;-0.39;91.42;101081.97;5115136;28;20015;-72
2020/12/01 10:09:07;;;;;;;82.10;40.50;;;;;;;-0.24;91.25;101068.91;5114124;28;20421;-63
2020/12/01 10:12:26;;;;;;;90.50;41.78;;;;;;;-0.24;90.82;101063.41;5114099;28;20331;-71
2020/12/01 10:19:56;;;;;;;88.65;41.20;;;;;;;-0.23;91.29;101049.25;5114938;28;20026;-72
2020/12/01 10:35:26;;;;;;;81.70;39.47;;;;;;;-0.12;90.80;101036.00;5113162;28;20130;-71
2020/12/01 10:37:55;;;;;;;83.18;40.95;;;;;;;-0.11;90.83;101034.88;5114405;28;20442;-70
2020/12/01 10:40:22;;;;;;;84.30;39.42;;;;;;;-0.11;91.15;101032.91;5114225;28;20024;-70
2020/12/01 10:42:48;;;;;;;79.18;38.90;;;;;;;-0.15;90.55;101031.09;5114506;28;20031;-71
2020/12/01 10:45:14;;;;;;;83.63;39.80;;;;;;;-0.13;90.76;101023.31;5112807;28;20015;-69
2020/12/01 10:47:39;;;;;;;83.60;38.33;;;;;;;-0.14;90.59;101021.69;5117298;28;20099;-70
2020/12/01 10:50:06;;;;;;;78.70;37.95;;;;;;;-0.07;91.35;101022.03;5118191;28;20065;-71
2020/12/01 10:52:34;;;;;;;87.95;40.88;;;;;;;-0.06;90.77;101023.69;5106821;28;20023;-72
2020/12/01 10:55:00;;;;;;;88.15;39.80;;;;;;;-0.03;90.90;101011.97;5117312;28;20422;-71
2020/12/01 10:57:25;;;;;;;76.85;37.97;;;;;;;-0.01;90.64;101012.47;5116676;28;20047;-71
2020/12/01 10:59:50;;;;;;;74.38;35.65;;;;;;;-0.02;90.38;101019.97;5117252;28;20026;-71
2020/12/01 11:02:16;;;;;;;77.45;37.42;;;;;;;-0.04;90.12;101019.47;5117175;28;20042;-72
2020/12/01 11:04:41;;;;;;;87.70;40.92;;;;;;;-0.07;90.46;101013.75;5115676;28;20023;-72
2020/12/01 11:07:06;;;;;;;81.25;39.58;;;;;;;-0.05;90.01;101015.06;5117481;28;20028;-72
2020/12/01 11:09:32;;;;;;;101.88;44.38;;;;;;;-0.06;90.39;101012.63;5117548;28;20304;-72
2020/12/01 11:11:59;;;;;;;84.57;40.03;;;;;;;-0.04;90.77;101015.88;5116442;28;20054;-72
2020/12/01 11:14:24;;;;;;;77.53;37.17;;;;;;;-0.08;90.33;101012.13;5108976;28;20054;-73
2020/12/01 11:16:49;;;;;;;81.40;39.63;;;;;;;-0.13;90.45;101015.03;5117239;28;20023;-72
2020/12/01 11:19:15;;;;;;;95.32;44.83;;;;;;;-0.07;90.29;101011.00;5118200;28;20030;-72
2020/12/01 11:21:40;;;;;;;98.90;45.95;;;;;;;-0.06;90.49;101009.84;5118502;28;20079;-72
2020/12/01 11:24:05;;;;;;;105.07;46.42;;;;;;;-0.04;90.67;101004.81;5117088;28;20065;-71
2020/12/01 11:26:31;;;;;;;93.90;42.47;;;;;;;-0.03;90.41;101000.94;5114609;28;20052;-72
2020/12/01 11:28:57;;;;;;;115.97;55.17;;;;;;;-0.03;90.42;101000.94;5117572;28;20032;-72
2020/12/01 11:31:22;;;;;;;94.45;46.15;;;;;;;-0.03;90.35;100995.41;5114476;28;20106;-71
2020/12/01 11:34:00;;;;;;;97.63;48.40;;;;;;;0.02;90.36;100991.72;5117983;28;20153;-71
2020/12/01 11:36:26;;;;;;;83.20;41.13;;;;;;;0.04;90.49;100990.25;5114242;28;20027;-70
2020/12/01 11:38:51;;;;;;;80.57;38.92;;;;;;;0.06;90.52;100990.75;5117955;28;20353;-71
2020/12/01 11:41:17;;;;;;;85.85;40.03;;;;;;;0.05;90.27;100985.53;5117740;28;20055;-71
2020/12/01 11:43:42;;;;;;;75.22;37.78;;;;;;;0.10;90.08;100983.44;5114072;28;20544;-71
2020/12/01 11:46:07;;;;;;;76.55;35.55;;;;;;;0.11;89.78;100973.22;5116739;28;20027;-71
2020/12/01 11:48:33;;;;;;;81.95;38.83;;;;;;;0.14;89.99;100975.34;5117792;28;20027;-71
2020/12/01 11:50:58;;;;;;;78.75;36.65;;;;;;;0.14;89.38;100978.91;5117708;28;20020;-71
2020/12/01 11:53:24;;;;;;;86.07;39.42;;;;;;;0.16;90.00;100976.66;5117626;28;20022;-71
2020/12/01 11:55:49;;;;;;;92.15;42.38;;;;;;;0.15;89.67;100966.72;5117719;28;20020;-71
2020/12/01 11:58:14;;;;;;;79.63;38.53;;;;;;;0.14;89.24;100967.03;5116859;28;20024;-71
2020/12/01 12:00:40;;;;;;;79.85;38.78;;;;;;;0.13;89.34;100966.22;5117628;28;20076;-72
2020/12/01 12:03:05;;;;;;;83.05;42.80;;;;;;;0.13;89.30;100963.47;5117423;28;20110;-71